Aérodrome :
LOGIN :

S'inscrire | Disclaimer

   EN    FR    IT 

 










Légende :    VFR   VFR Marginal   IFR   IFR Intensif   IFR Très Intensif
Visi : 
Plafond : 
>= 8 km
>= 3000ft
5 à 8 km
1000 à 3000 ft
1500m à 5 km
500 à 1000 ft
800 à 1500m
200 à 500 ft
< 800m
< 200 ft
Symboles :   Orages  Brouillard  Fortes neiges  Fortes précipitations  Vent > 20 kt
SIGMETs :   Divers  Orages  Givrage  Turbulence  Onde Orograph.  Cendres Volcan.







- Altitude de l'aérodrome : 290 ft
- Code IATA : LAI
- Voir les cartes d'approche


LFRO - Lannion

DERNIER METAR :
  • 232230Z AUTO 22005KT 9999 SCT013 BKN170 BKN210 15/14 Q1019

METARs EXPIRÉS :
  • 232200Z AUTO 24004KT CAVOK 15/14 Q1019
  • 232130Z AUTO 24004KT CAVOK 15/14 Q1019
  • 232100Z AUTO 27006KT CAVOK 15/14 Q1018
  • 232030Z AUTO 27005KT CAVOK 15/14 Q1018
  • 232000Z AUTO 27006KT CAVOK 15/14 Q1018

TAF TAF LFRO
Valide du 23 à 12h jusqu'au 24 à 12h UTC


231100Z 2312/2412 27012KT 9999 BKN025
Pas de NOTAMs connus pour ce terrain.



MET'MAP, la Météo Aéronautique d'un coup d'oeil ! - Copyright ORBIFLY Décembre 2007 - Disclaimer

ORBIFLY MET'MAP TEAM :

Programmation & Développement : Alexandra Zaïnal
Conception & Développement : Baudouin d'Aumeries
Co-Programmation & Développement : Marc-Olivier Méhu
Soutien technique & logistique : Manuel Goepfert

Contact : metmap@orbifly.com




SOURCES & CREDITS :

   NOAA